sensor_id;sensor_type;location;lat;lon;timestamp;P1;durP1;ratioP1;P2;durP2;ratioP2
16665;SDS011;8446;50.998;6.250;2022-08-19T00:00:07;30.20;;;22.83;;
16665;SDS011;8446;50.998;6.250;2022-08-19T00:02:39;26.07;;;20.67;;
16665;SDS011;8446;50.998;6.250;2022-08-19T00:05:07;26.30;;;19.70;;
16665;SDS011;8446;50.998;6.250;2022-08-19T00:07:35;23.60;;;17.57;;
16665;SDS011;8446;50.998;6.250;2022-08-19T00:10:03;20.17;;;16.80;;
16665;SDS011;8446;50.998;6.250;2022-08-19T00:12:33;23.10;;;16.93;;
16665;SDS011;8446;50.998;6.250;2022-08-19T00:15:02;24.03;;;18.20;;
16665;SDS011;8446;50.998;6.250;2022-08-19T00:17:30;25.00;;;18.17;;
16665;SDS011;8446;50.998;6.250;2022-08-19T00:19:57;28.80;;;20.40;;
16665;SDS011;8446;50.998;6.250;2022-08-19T00:22:27;29.60;;;21.00;;
16665;SDS011;8446;50.998;6.250;2022-08-19T00:24:53;36.97;;;22.00;;
16665;SDS011;8446;50.998;6.250;2022-08-19T00:27:20;27.17;;;20.67;;
16665;SDS011;8446;50.998;6.250;2022-08-19T00:29:48;31.37;;;21.90;;
16665;SDS011;8446;50.998;6.250;2022-08-19T00:32:15;30.60;;;22.10;;
16665;SDS011;8446;50.998;6.250;2022-08-19T00:34:42;34.30;;;23.33;;
16665;SDS011;8446;50.998;6.250;2022-08-19T00:37:09;32.90;;;23.33;;
16665;SDS011;8446;50.998;6.250;2022-08-19T00:39:36;31.30;;;24.07;;
16665;SDS011;8446;50.998;6.250;2022-08-19T00:42:03;31.37;;;22.20;;
16665;SDS011;8446;50.998;6.250;2022-08-19T00:44:31;36.70;;;23.80;;
16665;SDS011;8446;50.998;6.250;2022-08-19T00:46:59;32.27;;;23.03;;
16665;SDS011;8446;50.998;6.250;2022-08-19T00:49:27;30.80;;;23.53;;
16665;SDS011;8446;50.998;6.250;2022-08-19T00:51:58;31.87;;;22.87;;
16665;SDS011;8446;50.998;6.250;2022-08-19T00:54:29;30.13;;;22.50;;
16665;SDS011;8446;50.998;6.250;2022-08-19T00:56:56;34.57;;;23.50;;
16665;SDS011;8446;50.998;6.250;2022-08-19T00:59:24;31.37;;;23.37;;
16665;SDS011;8446;50.998;6.250;2022-08-19T01:01:51;34.00;;;24.20;;
16665;SDS011;8446;50.998;6.250;2022-08-19T01:04:20;32.40;;;24.30;;
16665;SDS011;8446;50.998;6.250;2022-08-19T01:06:47;32.70;;;23.17;;
16665;SDS011;8446;50.998;6.250;2022-08-19T01:09:13;28.03;;;22.13;;
16665;SDS011;8446;50.998;6.250;2022-08-19T01:11:41;37.70;;;25.47;;
16665;SDS011;8446;50.998;6.250;2022-08-19T01:14:10;30.70;;;23.53;;
16665;SDS011;8446;50.998;6.250;2022-08-19T01:16:38;40.63;;;25.33;;
16665;SDS011;8446;50.998;6.250;2022-08-19T01:19:09;35.53;;;23.20;;
16665;SDS011;8446;50.998;6.250;2022-08-19T01:21:47;36.03;;;26.10;;
16665;SDS011;8446;50.998;6.250;2022-08-19T01:24:19;40.00;;;27.67;;
16665;SDS011;8446;50.998;6.250;2022-08-19T01:26:46;41.07;;;27.33;;
16665;SDS011;8446;50.998;6.250;2022-08-19T01:29:14;40.40;;;27.40;;
16665;SDS011;8446;50.998;6.250;2022-08-19T01:31:40;41.30;;;28.10;;
16665;SDS011;8446;50.998;6.250;2022-08-19T01:34:08;37.00;;;27.70;;
16665;SDS011;8446;50.998;6.250;2022-08-19T01:36:36;44.73;;;30.30;;
16665;SDS011;8446;50.998;6.250;2022-08-19T01:39:13;41.77;;;30.40;;
16665;SDS011;8446;50.998;6.250;2022-08-19T01:41:45;44.43;;;30.40;;
16665;SDS011;8446;50.998;6.250;2022-08-19T01:44:13;48.47;;;32.50;;
16665;SDS011;8446;50.998;6.250;2022-08-19T01:46:40;55.30;;;37.13;;
16665;SDS011;8446;50.998;6.250;2022-08-19T01:49:08;56.50;;;35.87;;
16665;SDS011;8446;50.998;6.250;2022-08-19T01:51:36;57.27;;;36.83;;
16665;SDS011;8446;50.998;6.250;2022-08-19T01:54:03;51.17;;;35.13;;
16665;SDS011;8446;50.998;6.250;2022-08-19T01:56:30;59.03;;;35.83;;
16665;SDS011;8446;50.998;6.250;2022-08-19T01:58:59;52.43;;;33.30;;
16665;SDS011;8446;50.998;6.250;2022-08-19T02:01:29;52.17;;;34.33;;
16665;SDS011;8446;50.998;6.250;2022-08-19T02:03:56;54.00;;;34.97;;
16665;SDS011;8446;50.998;6.250;2022-08-19T02:06:23;48.70;;;32.60;;
16665;SDS011;8446;50.998;6.250;2022-08-19T02:08:50;47.00;;;32.87;;
16665;SDS011;8446;50.998;6.250;2022-08-19T02:11:18;51.10;;;34.93;;
16665;SDS011;8446;50.998;6.250;2022-08-19T02:13:46;47.90;;;33.90;;
16665;SDS011;8446;50.998;6.250;2022-08-19T02:16:15;48.17;;;32.97;;
16665;SDS011;8446;50.998;6.250;2022-08-19T02:18:42;45.43;;;31.73;;
16665;SDS011;8446;50.998;6.250;2022-08-19T02:21:09;57.93;;;35.53;;
16665;SDS011;8446;50.998;6.250;2022-08-19T02:23:37;54.00;;;34.60;;
16665;SDS011;8446;50.998;6.250;2022-08-19T02:26:04;53.30;;;38.70;;
16665;SDS011;8446;50.998;6.250;2022-08-19T02:28:31;57.90;;;37.50;;
16665;SDS011;8446;50.998;6.250;2022-08-19T02:30:58;63.87;;;38.70;;
16665;SDS011;8446;50.998;6.250;2022-08-19T02:33:28;70.27;;;38.43;;
16665;SDS011;8446;50.998;6.250;2022-08-19T02:35:55;65.10;;;40.30;;
16665;SDS011;8446;50.998;6.250;2022-08-19T02:38:22;61.17;;;40.00;;
16665;SDS011;8446;50.998;6.250;2022-08-19T02:40:51;58.33;;;38.57;;
16665;SDS011;8446;50.998;6.250;2022-08-19T02:43:19;70.60;;;39.73;;
16665;SDS011;8446;50.998;6.250;2022-08-19T02:45:47;56.43;;;36.80;;
16665;SDS011;8446;50.998;6.250;2022-08-19T02:48:15;60.50;;;38.93;;
16665;SDS011;8446;50.998;6.250;2022-08-19T02:50:45;53.33;;;36.27;;
16665;SDS011;8446;50.998;6.250;2022-08-19T02:53:12;59.33;;;38.50;;
16665;SDS011;8446;50.998;6.250;2022-08-19T02:55:43;50.27;;;35.40;;
16665;SDS011;8446;50.998;6.250;2022-08-19T02:58:10;48.57;;;33.70;;
16665;SDS011;8446;50.998;6.250;2022-08-19T03:00:41;47.07;;;31.70;;
16665;SDS011;8446;50.998;6.250;2022-08-19T03:03:09;50.43;;;33.23;;
16665;SDS011;8446;50.998;6.250;2022-08-19T03:05:36;49.40;;;32.13;;
16665;SDS011;8446;50.998;6.250;2022-08-19T03:08:04;45.20;;;30.90;;
16665;SDS011;8446;50.998;6.250;2022-08-19T03:10:31;55.80;;;35.27;;
16665;SDS011;8446;50.998;6.250;2022-08-19T03:12:58;53.40;;;34.23;;
16665;SDS011;8446;50.998;6.250;2022-08-19T03:15:25;53.77;;;34.63;;
16665;SDS011;8446;50.998;6.250;2022-08-19T03:17:52;53.53;;;35.90;;
16665;SDS011;8446;50.998;6.250;2022-08-19T03:20:19;52.20;;;36.50;;
16665;SDS011;8446;50.998;6.250;2022-08-19T03:22:46;56.80;;;35.87;;
16665;SDS011;8446;50.998;6.250;2022-08-19T03:25:14;54.63;;;36.20;;
16665;SDS011;8446;50.998;6.250;2022-08-19T03:27:41;57.50;;;35.73;;
16665;SDS011;8446;50.998;6.250;2022-08-19T03:30:09;51.17;;;34.97;;
16665;SDS011;8446;50.998;6.250;2022-08-19T03:32:36;55.30;;;37.20;;
16665;SDS011;8446;50.998;6.250;2022-08-19T03:35:03;53.80;;;34.97;;
16665;SDS011;8446;50.998;6.250;2022-08-19T03:37:31;53.60;;;35.07;;
16665;SDS011;8446;50.998;6.250;2022-08-19T03:39:58;52.97;;;35.90;;
16665;SDS011;8446;50.998;6.250;2022-08-19T03:42:26;55.50;;;34.37;;
16665;SDS011;8446;50.998;6.250;2022-08-19T03:44:53;60.93;;;37.07;;
16665;SDS011;8446;50.998;6.250;2022-08-19T03:47:20;50.80;;;32.60;;
16665;SDS011;8446;50.998;6.250;2022-08-19T03:49:47;41.43;;;29.77;;
16665;SDS011;8446;50.998;6.250;2022-08-19T03:52:14;34.30;;;25.40;;
16665;SDS011;8446;50.998;6.250;2022-08-19T03:54:40;36.50;;;25.57;;
16665;SDS011;8446;50.998;6.250;2022-08-19T03:57:07;40.47;;;26.13;;
16665;SDS011;8446;50.998;6.250;2022-08-19T03:59:36;46.37;;;32.70;;
16665;SDS011;8446;50.998;6.250;2022-08-19T04:02:06;53.27;;;33.83;;
16665;SDS011;8446;50.998;6.250;2022-08-19T04:04:34;49.10;;;33.10;;
16665;SDS011;8446;50.998;6.250;2022-08-19T04:07:01;59.67;;;37.63;;
16665;SDS011;8446;50.998;6.250;2022-08-19T04:09:29;56.43;;;35.47;;
16665;SDS011;8446;50.998;6.250;2022-08-19T04:11:56;58.27;;;36.50;;
16665;SDS011;8446;50.998;6.250;2022-08-19T04:14:26;61.97;;;38.87;;
16665;SDS011;8446;50.998;6.250;2022-08-19T04:16:57;60.20;;;37.07;;
16665;SDS011;8446;50.998;6.250;2022-08-19T04:19:25;63.97;;;39.87;;
16665;SDS011;8446;50.998;6.250;2022-08-19T04:21:53;70.50;;;41.67;;
16665;SDS011;8446;50.998;6.250;2022-08-19T04:24:20;62.40;;;39.63;;
16665;SDS011;8446;50.998;6.250;2022-08-19T04:26:48;69.50;;;40.30;;
16665;SDS011;8446;50.998;6.250;2022-08-19T04:29:16;81.37;;;43.10;;
16665;SDS011;8446;50.998;6.250;2022-08-19T04:31:47;72.13;;;42.90;;
16665;SDS011;8446;50.998;6.250;2022-08-19T04:34:17;74.53;;;41.63;;
16665;SDS011;8446;50.998;6.250;2022-08-19T04:36:47;75.27;;;42.83;;
16665;SDS011;8446;50.998;6.250;2022-08-19T04:39:17;78.00;;;42.50;;
16665;SDS011;8446;50.998;6.250;2022-08-19T04:41:45;77.00;;;45.23;;
16665;SDS011;8446;50.998;6.250;2022-08-19T04:44:30;84.97;;;43.17;;
16665;SDS011;8446;50.998;6.250;2022-08-19T04:46:57;90.43;;;44.33;;
16665;SDS011;8446;50.998;6.250;2022-08-19T04:49:26;78.43;;;41.50;;
16665;SDS011;8446;50.998;6.250;2022-08-19T04:51:53;73.07;;;40.77;;
16665;SDS011;8446;50.998;6.250;2022-08-19T04:54:21;78.77;;;45.67;;
16665;SDS011;8446;50.998;6.250;2022-08-19T04:56:50;74.60;;;42.37;;
16665;SDS011;8446;50.998;6.250;2022-08-19T04:59:18;82.83;;;42.90;;
16665;SDS011;8446;50.998;6.250;2022-08-19T05:01:45;87.87;;;44.40;;
16665;SDS011;8446;50.998;6.250;2022-08-19T05:04:14;72.20;;;42.17;;
16665;SDS011;8446;50.998;6.250;2022-08-19T05:06:45;85.47;;;41.00;;
16665;SDS011;8446;50.998;6.250;2022-08-19T05:09:13;80.40;;;41.50;;
16665;SDS011;8446;50.998;6.250;2022-08-19T05:11:40;81.17;;;43.70;;
16665;SDS011;8446;50.998;6.250;2022-08-19T05:14:08;89.37;;;43.83;;
16665;SDS011;8446;50.998;6.250;2022-08-19T05:16:37;83.20;;;44.67;;
16665;SDS011;8446;50.998;6.250;2022-08-19T05:19:04;85.50;;;44.40;;
16665;SDS011;8446;50.998;6.250;2022-08-19T05:21:50;79.77;;;43.50;;
16665;SDS011;8446;50.998;6.250;2022-08-19T05:24:34;86.97;;;44.10;;
16665;SDS011;8446;50.998;6.250;2022-08-19T05:27:02;89.30;;;41.13;;
16665;SDS011;8446;50.998;6.250;2022-08-19T05:29:30;84.13;;;44.00;;
16665;SDS011;8446;50.998;6.250;2022-08-19T05:31:59;92.67;;;44.70;;
16665;SDS011;8446;50.998;6.250;2022-08-19T05:34:27;88.60;;;43.77;;
16665;SDS011;8446;50.998;6.250;2022-08-19T05:36:56;86.03;;;45.10;;
16665;SDS011;8446;50.998;6.250;2022-08-19T05:39:25;88.87;;;44.30;;
16665;SDS011;8446;50.998;6.250;2022-08-19T05:41:55;87.37;;;45.40;;
16665;SDS011;8446;50.998;6.250;2022-08-19T05:44:24;92.67;;;47.03;;
16665;SDS011;8446;50.998;6.250;2022-08-19T05:46:51;91.73;;;45.73;;
16665;SDS011;8446;50.998;6.250;2022-08-19T05:49:19;92.93;;;44.40;;
16665;SDS011;8446;50.998;6.250;2022-08-19T05:51:47;89.13;;;44.80;;
16665;SDS011;8446;50.998;6.250;2022-08-19T05:54:15;95.67;;;47.77;;
16665;SDS011;8446;50.998;6.250;2022-08-19T05:56:42;104.13;;;45.70;;
16665;SDS011;8446;50.998;6.250;2022-08-19T05:59:12;103.77;;;48.87;;
16665;SDS011;8446;50.998;6.250;2022-08-19T06:01:41;98.50;;;46.70;;
16665;SDS011;8446;50.998;6.250;2022-08-19T06:04:09;102.77;;;47.40;;
16665;SDS011;8446;50.998;6.250;2022-08-19T06:06:37;103.90;;;46.10;;
16665;SDS011;8446;50.998;6.250;2022-08-19T06:09:05;105.40;;;47.50;;
16665;SDS011;8446;50.998;6.250;2022-08-19T06:11:36;93.87;;;44.37;;
16665;SDS011;8446;50.998;6.250;2022-08-19T06:14:04;92.63;;;48.70;;
16665;SDS011;8446;50.998;6.250;2022-08-19T06:16:34;103.13;;;48.43;;
16665;SDS011;8446;50.998;6.250;2022-08-19T06:19:02;85.93;;;44.03;;
16665;SDS011;8446;50.998;6.250;2022-08-19T06:21:32;97.17;;;46.33;;
16665;SDS011;8446;50.998;6.250;2022-08-19T06:23:59;98.80;;;47.50;;
16665;SDS011;8446;50.998;6.250;2022-08-19T06:26:27;85.73;;;42.93;;
16665;SDS011;8446;50.998;6.250;2022-08-19T06:28:55;96.90;;;46.73;;
16665;SDS011;8446;50.998;6.250;2022-08-19T06:31:23;87.07;;;43.87;;
16665;SDS011;8446;50.998;6.250;2022-08-19T06:33:51;88.27;;;43.10;;
16665;SDS011;8446;50.998;6.250;2022-08-19T06:36:19;94.17;;;42.43;;
16665;SDS011;8446;50.998;6.250;2022-08-19T06:38:46;77.47;;;39.77;;
16665;SDS011;8446;50.998;6.250;2022-08-19T06:41:13;84.90;;;42.27;;
16665;SDS011;8446;50.998;6.250;2022-08-19T06:43:40;77.80;;;40.20;;
16665;SDS011;8446;50.998;6.250;2022-08-19T06:46:13;78.73;;;39.50;;
16665;SDS011;8446;50.998;6.250;2022-08-19T06:48:41;75.43;;;37.47;;
16665;SDS011;8446;50.998;6.250;2022-08-19T06:51:08;73.50;;;36.70;;
16665;SDS011;8446;50.998;6.250;2022-08-19T06:53:35;68.20;;;36.40;;
16665;SDS011;8446;50.998;6.250;2022-08-19T06:56:03;59.83;;;34.47;;
16665;SDS011;8446;50.998;6.250;2022-08-19T06:58:30;61.33;;;32.40;;
16665;SDS011;8446;50.998;6.250;2022-08-19T07:00:58;69.37;;;33.30;;
16665;SDS011;8446;50.998;6.250;2022-08-19T07:03:30;52.93;;;28.80;;
16665;SDS011;8446;50.998;6.250;2022-08-19T07:06:02;54.00;;;29.27;;
16665;SDS011;8446;50.998;6.250;2022-08-19T07:08:29;50.47;;;28.57;;
16665;SDS011;8446;50.998;6.250;2022-08-19T07:10:56;52.70;;;28.10;;
16665;SDS011;8446;50.998;6.250;2022-08-19T07:13:23;46.03;;;27.23;;
16665;SDS011;8446;50.998;6.250;2022-08-19T07:15:50;44.60;;;26.13;;
16665;SDS011;8446;50.998;6.250;2022-08-19T07:18:17;46.67;;;25.03;;
16665;SDS011;8446;50.998;6.250;2022-08-19T07:20:46;38.47;;;23.23;;
16665;SDS011;8446;50.998;6.250;2022-08-19T07:23:14;42.30;;;25.43;;
16665;SDS011;8446;50.998;6.250;2022-08-19T07:25:40;40.53;;;25.60;;
16665;SDS011;8446;50.998;6.250;2022-08-19T07:28:08;44.27;;;23.50;;
16665;SDS011;8446;50.998;6.250;2022-08-19T07:30:36;39.63;;;25.73;;
16665;SDS011;8446;50.998;6.250;2022-08-19T07:33:03;46.70;;;24.33;;
16665;SDS011;8446;50.998;6.250;2022-08-19T07:35:30;36.47;;;22.13;;
16665;SDS011;8446;50.998;6.250;2022-08-19T07:37:59;34.30;;;21.80;;
16665;SDS011;8446;50.998;6.250;2022-08-19T07:40:28;34.37;;;21.60;;
16665;SDS011;8446;50.998;6.250;2022-08-19T07:42:56;38.10;;;23.40;;
16665;SDS011;8446;50.998;6.250;2022-08-19T07:45:23;39.10;;;22.57;;
16665;SDS011;8446;50.998;6.250;2022-08-19T07:47:50;38.37;;;22.77;;
16665;SDS011;8446;50.998;6.250;2022-08-19T07:50:18;42.47;;;24.80;;
16665;SDS011;8446;50.998;6.250;2022-08-19T07:52:46;36.57;;;22.40;;
16665;SDS011;8446;50.998;6.250;2022-08-19T07:55:17;36.40;;;23.47;;
16665;SDS011;8446;50.998;6.250;2022-08-19T07:57:45;34.00;;;21.13;;
16665;SDS011;8446;50.998;6.250;2022-08-19T08:00:13;39.80;;;22.40;;
16665;SDS011;8446;50.998;6.250;2022-08-19T08:02:40;35.53;;;22.27;;
16665;SDS011;8446;50.998;6.250;2022-08-19T08:05:08;35.47;;;21.63;;
16665;SDS011;8446;50.998;6.250;2022-08-19T08:07:53;34.17;;;20.80;;
16665;SDS011;8446;50.998;6.250;2022-08-19T08:10:39;33.50;;;20.00;;
16665;SDS011;8446;50.998;6.250;2022-08-19T08:13:06;36.90;;;22.00;;
16665;SDS011;8446;50.998;6.250;2022-08-19T08:15:33;36.53;;;23.40;;
16665;SDS011;8446;50.998;6.250;2022-08-19T08:18:02;37.90;;;22.97;;
16665;SDS011;8446;50.998;6.250;2022-08-19T08:20:28;30.87;;;20.67;;
16665;SDS011;8446;50.998;6.250;2022-08-19T08:22:55;36.40;;;21.50;;
16665;SDS011;8446;50.998;6.250;2022-08-19T08:25:46;39.23;;;24.37;;
16665;SDS011;8446;50.998;6.250;2022-08-19T08:28:13;38.73;;;21.20;;
16665;SDS011;8446;50.998;6.250;2022-08-19T08:30:40;34.93;;;21.17;;
16665;SDS011;8446;50.998;6.250;2022-08-19T08:33:08;34.73;;;23.10;;
16665;SDS011;8446;50.998;6.250;2022-08-19T08:35:35;34.43;;;22.63;;
16665;SDS011;8446;50.998;6.250;2022-08-19T08:38:02;40.07;;;23.07;;
16665;SDS011;8446;50.998;6.250;2022-08-19T08:40:31;34.30;;;21.27;;
16665;SDS011;8446;50.998;6.250;2022-08-19T08:43:08;37.53;;;22.07;;
16665;SDS011;8446;50.998;6.250;2022-08-19T08:45:41;36.63;;;20.40;;
16665;SDS011;8446;50.998;6.250;2022-08-19T08:48:22;33.67;;;22.20;;
16665;SDS011;8446;50.998;6.250;2022-08-19T08:50:56;35.10;;;21.70;;
16665;SDS011;8446;50.998;6.250;2022-08-19T08:53:24;34.70;;;21.03;;
16665;SDS011;8446;50.998;6.250;2022-08-19T08:55:52;32.33;;;21.07;;
16665;SDS011;8446;50.998;6.250;2022-08-19T08:58:24;28.17;;;19.40;;
16665;SDS011;8446;50.998;6.250;2022-08-19T09:00:54;33.17;;;20.40;;
16665;SDS011;8446;50.998;6.250;2022-08-19T09:03:22;34.90;;;19.80;;
16665;SDS011;8446;50.998;6.250;2022-08-19T09:05:55;27.80;;;17.80;;
16665;SDS011;8446;50.998;6.250;2022-08-19T09:08:28;31.23;;;18.47;;
16665;SDS011;8446;50.998;6.250;2022-08-19T09:11:07;27.50;;;16.80;;
16665;SDS011;8446;50.998;6.250;2022-08-19T09:13:40;26.13;;;15.87;;
16665;SDS011;8446;50.998;6.250;2022-08-19T09:16:13;19.67;;;12.60;;
16665;SDS011;8446;50.998;6.250;2022-08-19T09:18:44;17.90;;;12.53;;
16665;SDS011;8446;50.998;6.250;2022-08-19T09:21:12;19.57;;;12.67;;
16665;SDS011;8446;50.998;6.250;2022-08-19T09:23:39;17.40;;;11.63;;
16665;SDS011;8446;50.998;6.250;2022-08-19T09:26:09;21.80;;;14.00;;
16665;SDS011;8446;50.998;6.250;2022-08-19T09:28:39;19.67;;;12.97;;
16665;SDS011;8446;50.998;6.250;2022-08-19T09:31:08;21.17;;;13.30;;
16665;SDS011;8446;50.998;6.250;2022-08-19T09:33:35;21.23;;;13.97;;
16665;SDS011;8446;50.998;6.250;2022-08-19T09:36:03;18.50;;;12.90;;
16665;SDS011;8446;50.998;6.250;2022-08-19T09:38:32;16.57;;;11.13;;
16665;SDS011;8446;50.998;6.250;2022-08-19T09:41:01;15.23;;;11.60;;
16665;SDS011;8446;50.998;6.250;2022-08-19T09:43:30;17.13;;;10.93;;
16665;SDS011;8446;50.998;6.250;2022-08-19T09:45:59;15.77;;;10.57;;
16665;SDS011;8446;50.998;6.250;2022-08-19T09:48:26;14.47;;;10.53;;
16665;SDS011;8446;50.998;6.250;2022-08-19T09:50:53;16.80;;;10.83;;
16665;SDS011;8446;50.998;6.250;2022-08-19T09:53:20;18.30;;;11.57;;
16665;SDS011;8446;50.998;6.250;2022-08-19T09:55:47;17.70;;;10.80;;
16665;SDS011;8446;50.998;6.250;2022-08-19T09:58:15;18.70;;;11.80;;
16665;SDS011;8446;50.998;6.250;2022-08-19T10:00:41;15.93;;;10.43;;
16665;SDS011;8446;50.998;6.250;2022-08-19T10:03:09;30.10;;;12.30;;
16665;SDS011;8446;50.998;6.250;2022-08-19T10:05:37;21.10;;;13.03;;
16665;SDS011;8446;50.998;6.250;2022-08-19T10:08:17;20.00;;;11.97;;
16665;SDS011;8446;50.998;6.250;2022-08-19T10:10:46;20.20;;;12.53;;
16665;SDS011;8446;50.998;6.250;2022-08-19T10:13:14;14.87;;;10.50;;
16665;SDS011;8446;50.998;6.250;2022-08-19T10:15:43;19.50;;;11.57;;
16665;SDS011;8446;50.998;6.250;2022-08-19T10:18:11;15.20;;;10.50;;
16665;SDS011;8446;50.998;6.250;2022-08-19T10:20:38;23.03;;;12.10;;
16665;SDS011;8446;50.998;6.250;2022-08-19T10:23:06;19.50;;;13.30;;
16665;SDS011;8446;50.998;6.250;2022-08-19T10:25:33;17.53;;;11.17;;
16665;SDS011;8446;50.998;6.250;2022-08-19T10:28:00;22.73;;;13.10;;
16665;SDS011;8446;50.998;6.250;2022-08-19T10:30:27;16.87;;;11.93;;
16665;SDS011;8446;50.998;6.250;2022-08-19T10:32:54;21.23;;;12.53;;
16665;SDS011;8446;50.998;6.250;2022-08-19T10:35:22;24.07;;;14.47;;
16665;SDS011;8446;50.998;6.250;2022-08-19T10:37:51;23.37;;;13.37;;
16665;SDS011;8446;50.998;6.250;2022-08-19T10:40:18;18.30;;;13.07;;
16665;SDS011;8446;50.998;6.250;2022-08-19T10:42:45;19.73;;;12.40;;
16665;SDS011;8446;50.998;6.250;2022-08-19T10:45:11;22.77;;;13.20;;
16665;SDS011;8446;50.998;6.250;2022-08-19T10:47:38;18.57;;;13.67;;
16665;SDS011;8446;50.998;6.250;2022-08-19T10:50:05;22.00;;;13.70;;
16665;SDS011;8446;50.998;6.250;2022-08-19T10:52:51;21.40;;;12.97;;
16665;SDS011;8446;50.998;6.250;2022-08-19T10:55:19;27.40;;;14.10;;
16665;SDS011;8446;50.998;6.250;2022-08-19T10:58:01;19.67;;;13.43;;
16665;SDS011;8446;50.998;6.250;2022-08-19T11:00:28;17.77;;;12.57;;
16665;SDS011;8446;50.998;6.250;2022-08-19T11:02:56;23.73;;;13.20;;
16665;SDS011;8446;50.998;6.250;2022-08-19T11:05:23;15.83;;;11.00;;
16665;SDS011;8446;50.998;6.250;2022-08-19T11:07:50;16.27;;;10.63;;
16665;SDS011;8446;50.998;6.250;2022-08-19T11:10:18;14.80;;;9.67;;
16665;SDS011;8446;50.998;6.250;2022-08-19T11:12:46;16.73;;;11.23;;
16665;SDS011;8446;50.998;6.250;2022-08-19T11:15:13;15.57;;;10.43;;
16665;SDS011;8446;50.998;6.250;2022-08-19T11:17:40;15.90;;;10.10;;
16665;SDS011;8446;50.998;6.250;2022-08-19T11:20:09;17.60;;;10.70;;
16665;SDS011;8446;50.998;6.250;2022-08-19T11:22:37;18.80;;;9.13;;
16665;SDS011;8446;50.998;6.250;2022-08-19T11:25:07;15.37;;;10.77;;
16665;SDS011;8446;50.998;6.250;2022-08-19T11:27:37;14.70;;;10.07;;
16665;SDS011;8446;50.998;6.250;2022-08-19T11:30:07;16.77;;;10.67;;
16665;SDS011;8446;50.998;6.250;2022-08-19T11:32:35;20.83;;;12.07;;
16665;SDS011;8446;50.998;6.250;2022-08-19T11:35:01;16.33;;;12.27;;
16665;SDS011;8446;50.998;6.250;2022-08-19T11:37:29;17.50;;;11.03;;
16665;SDS011;8446;50.998;6.250;2022-08-19T11:39:55;16.23;;;10.10;;
16665;SDS011;8446;50.998;6.250;2022-08-19T11:42:23;14.70;;;10.00;;
16665;SDS011;8446;50.998;6.250;2022-08-19T11:45:08;14.10;;;9.67;;
16665;SDS011;8446;50.998;6.250;2022-08-19T11:47:35;9.87;;;7.43;;
16665;SDS011;8446;50.998;6.250;2022-08-19T11:50:04;16.40;;;9.00;;
16665;SDS011;8446;50.998;6.250;2022-08-19T11:52:31;12.27;;;7.40;;
16665;SDS011;8446;50.998;6.250;2022-08-19T11:54:58;9.90;;;8.10;;
16665;SDS011;8446;50.998;6.250;2022-08-19T11:57:26;13.93;;;9.00;;
16665;SDS011;8446;50.998;6.250;2022-08-19T11:59:53;14.07;;;9.00;;
16665;SDS011;8446;50.998;6.250;2022-08-19T12:02:19;12.47;;;8.67;;
16665;SDS011;8446;50.998;6.250;2022-08-19T12:04:46;13.47;;;8.90;;
16665;SDS011;8446;50.998;6.250;2022-08-19T12:07:13;15.37;;;7.90;;
16665;SDS011;8446;50.998;6.250;2022-08-19T12:09:40;12.03;;;8.40;;
16665;SDS011;8446;50.998;6.250;2022-08-19T12:12:08;11.37;;;8.53;;
16665;SDS011;8446;50.998;6.250;2022-08-19T12:14:36;9.13;;;6.87;;
16665;SDS011;8446;50.998;6.250;2022-08-19T12:17:04;12.73;;;8.60;;
16665;SDS011;8446;50.998;6.250;2022-08-19T12:19:32;11.47;;;7.30;;
16665;SDS011;8446;50.998;6.250;2022-08-19T12:21:59;10.40;;;7.47;;
16665;SDS011;8446;50.998;6.250;2022-08-19T12:24:30;8.70;;;6.37;;
16665;SDS011;8446;50.998;6.250;2022-08-19T12:26:57;9.30;;;5.77;;
16665;SDS011;8446;50.998;6.250;2022-08-19T12:29:26;10.47;;;7.57;;
16665;SDS011;8446;50.998;6.250;2022-08-19T12:31:55;9.87;;;6.40;;
16665;SDS011;8446;50.998;6.250;2022-08-19T12:34:26;10.17;;;6.10;;
16665;SDS011;8446;50.998;6.250;2022-08-19T12:36:55;8.80;;;5.03;;
16665;SDS011;8446;50.998;6.250;2022-08-19T12:39:22;8.40;;;5.77;;
16665;SDS011;8446;50.998;6.250;2022-08-19T12:41:49;5.70;;;4.70;;
16665;SDS011;8446;50.998;6.250;2022-08-19T12:44:16;7.27;;;4.80;;
16665;SDS011;8446;50.998;6.250;2022-08-19T12:46:43;5.87;;;4.40;;
16665;SDS011;8446;50.998;6.250;2022-08-19T12:49:11;6.70;;;4.50;;
16665;SDS011;8446;50.998;6.250;2022-08-19T12:51:38;5.23;;;4.20;;
16665;SDS011;8446;50.998;6.250;2022-08-19T12:54:04;5.47;;;4.27;;
16665;SDS011;8446;50.998;6.250;2022-08-19T12:56:31;7.63;;;4.63;;
16665;SDS011;8446;50.998;6.250;2022-08-19T12:59:00;7.03;;;4.10;;
16665;SDS011;8446;50.998;6.250;2022-08-19T13:01:27;5.63;;;3.90;;
16665;SDS011;8446;50.998;6.250;2022-08-19T13:03:57;6.60;;;4.40;;
16665;SDS011;8446;50.998;6.250;2022-08-19T13:06:25;7.80;;;4.17;;
16665;SDS011;8446;50.998;6.250;2022-08-19T13:08:53;5.60;;;4.07;;
16665;SDS011;8446;50.998;6.250;2022-08-19T13:11:20;10.20;;;4.10;;
16665;SDS011;8446;50.998;6.250;2022-08-19T13:13:49;5.73;;;3.43;;
16665;SDS011;8446;50.998;6.250;2022-08-19T13:16:17;7.83;;;4.13;;
16665;SDS011;8446;50.998;6.250;2022-08-19T13:18:47;3.37;;;3.07;;
16665;SDS011;8446;50.998;6.250;2022-08-19T13:21:17;3.03;;;2.63;;
16665;SDS011;8446;50.998;6.250;2022-08-19T13:23:47;4.80;;;3.17;;
16665;SDS011;8446;50.998;6.250;2022-08-19T13:26:14;2.90;;;2.47;;
16665;SDS011;8446;50.998;6.250;2022-08-19T13:28:42;2.83;;;2.40;;
16665;SDS011;8446;50.998;6.250;2022-08-19T13:31:28;8.20;;;2.80;;
16665;SDS011;8446;50.998;6.250;2022-08-19T13:34:15;4.43;;;2.90;;
16665;SDS011;8446;50.998;6.250;2022-08-19T13:36:44;5.13;;;3.20;;
16665;SDS011;8446;50.998;6.250;2022-08-19T13:39:12;2.70;;;2.50;;
16665;SDS011;8446;50.998;6.250;2022-08-19T13:41:43;3.90;;;2.53;;
16665;SDS011;8446;50.998;6.250;2022-08-19T13:44:13;3.00;;;2.70;;
16665;SDS011;8446;50.998;6.250;2022-08-19T13:46:40;8.43;;;2.97;;
16665;SDS011;8446;50.998;6.250;2022-08-19T13:49:10;8.17;;;2.40;;
16665;SDS011;8446;50.998;6.250;2022-08-19T13:51:37;5.07;;;2.47;;
16665;SDS011;8446;50.998;6.250;2022-08-19T13:54:05;3.73;;;2.80;;
16665;SDS011;8446;50.998;6.250;2022-08-19T13:56:33;4.27;;;2.90;;
16665;SDS011;8446;50.998;6.250;2022-08-19T13:59:00;3.10;;;2.20;;
16665;SDS011;8446;50.998;6.250;2022-08-19T14:01:27;11.03;;;3.00;;
16665;SDS011;8446;50.998;6.250;2022-08-19T14:03:55;2.60;;;2.40;;
16665;SDS011;8446;50.998;6.250;2022-08-19T14:06:22;5.63;;;2.60;;
16665;SDS011;8446;50.998;6.250;2022-08-19T14:08:50;3.37;;;2.67;;
16665;SDS011;8446;50.998;6.250;2022-08-19T14:11:17;2.60;;;2.37;;
16665;SDS011;8446;50.998;6.250;2022-08-19T14:13:45;8.70;;;2.70;;
16665;SDS011;8446;50.998;6.250;2022-08-19T14:16:13;3.00;;;1.97;;
16665;SDS011;8446;50.998;6.250;2022-08-19T14:18:40;5.17;;;2.83;;
16665;SDS011;8446;50.998;6.250;2022-08-19T14:21:08;2.40;;;2.20;;
16665;SDS011;8446;50.998;6.250;2022-08-19T14:23:41;3.20;;;1.90;;
16665;SDS011;8446;50.998;6.250;2022-08-19T14:26:09;2.70;;;1.50;;
16665;SDS011;8446;50.998;6.250;2022-08-19T14:28:39;1.93;;;1.40;;
16665;SDS011;8446;50.998;6.250;2022-08-19T14:31:08;10.33;;;2.03;;
16665;SDS011;8446;50.998;6.250;2022-08-19T14:33:35;2.20;;;1.50;;
16665;SDS011;8446;50.998;6.250;2022-08-19T14:36:02;2.00;;;1.70;;
16665;SDS011;8446;50.998;6.250;2022-08-19T14:38:30;1.90;;;1.80;;
16665;SDS011;8446;50.998;6.250;2022-08-19T14:41:06;3.83;;;1.70;;
16665;SDS011;8446;50.998;6.250;2022-08-19T14:43:34;2.40;;;2.20;;
16665;SDS011;8446;50.998;6.250;2022-08-19T14:46:04;3.57;;;1.83;;